createdAt,value
2019-05-13T07:15:02.925Z,57.30
2019-05-13T07:17:32.200Z,55.40
2019-05-13T07:21:41.743Z,56.10
2019-05-13T07:24:08.335Z,54.60
2019-05-13T07:26:34.739Z,54.70
2019-05-13T07:29:03.474Z,54.80
2019-05-13T07:31:32.418Z,54.90
2019-05-13T07:34:02.318Z,54.80
2019-05-13T07:36:31.410Z,54.90
2019-05-13T07:38:57.826Z,54.80
2019-05-13T07:41:35.611Z,54.90
2019-05-13T07:43:52.763Z,55.10
2019-05-13T07:46:21.812Z,55.00
2019-05-13T07:48:52.286Z,55.00
2019-05-13T07:51:18.818Z,55.00
2019-05-13T07:53:45.434Z,54.60
2019-05-13T07:56:12.598Z,54.20
2019-05-13T07:58:41.667Z,53.20
2019-05-13T08:01:07.753Z,53.40
2019-05-13T08:03:34.167Z,52.70
2019-05-13T08:06:01.912Z,52.70
2019-05-13T08:51:16.378Z,59.80
2019-05-13T08:53:42.913Z,59.20
2019-05-13T08:56:09.532Z,58.70
2019-05-13T08:58:36.082Z,59.40
2019-05-13T09:01:02.789Z,55.20
2019-05-13T09:03:32.287Z,55.40
2019-05-13T09:05:57.745Z,56.70
2019-05-13T09:08:24.866Z,58.50
2019-05-13T09:10:56.120Z,58.90
2019-05-13T09:13:22.347Z,59.00
2019-05-13T09:15:51.579Z,59.80
2019-05-13T09:18:17.620Z,58.70
2019-05-13T09:20:44.151Z,57.40
2019-05-13T09:23:11.432Z,56.60
2019-05-13T09:25:38.029Z,56.80
2019-05-13T09:28:04.721Z,56.70
2019-05-13T09:30:31.810Z,56.80
2019-05-13T09:32:58.358Z,55.50
2019-05-13T09:35:25.129Z,55.40
2019-05-13T09:37:51.732Z,55.80
2019-05-13T09:40:18.412Z,57.00
2019-05-13T09:42:51.544Z,53.30
2019-05-13T09:45:13.504Z,54.60
2019-05-13T09:47:41.756Z,55.70
2019-05-13T09:50:25.601Z,55.90
2019-05-13T09:52:39.651Z,55.20
2019-05-13T09:55:24.485Z,55.00
2019-05-13T09:57:35.240Z,54.20
2019-05-13T10:00:03.998Z,55.30
2019-05-13T10:02:32.062Z,54.00
2019-05-13T10:04:59.134Z,55.50
2019-05-13T10:07:25.775Z,56.40
2019-05-13T10:09:52.332Z,54.70
2019-05-13T10:12:18.970Z,54.10
2019-05-13T10:14:46.744Z,53.00
2019-05-13T10:17:14.629Z,54.60
2019-05-13T10:19:42.077Z,56.10
2019-05-13T10:22:08.916Z,53.80
2019-05-13T10:24:35.750Z,53.30
2019-05-13T10:27:02.754Z,52.80
2019-05-13T10:29:31.646Z,51.20
2019-05-13T10:31:58.296Z,53.00
2019-05-13T10:34:24.817Z,53.60
2019-05-13T10:36:51.596Z,54.10
2019-05-13T10:39:22.180Z,52.30
2019-05-13T10:41:48.288Z,53.80
2019-05-13T10:44:14.835Z,54.60
2019-05-13T10:46:42.562Z,53.80
2019-05-13T10:49:11.746Z,53.40
2019-05-13T10:51:37.702Z,53.50
2019-05-13T10:54:04.697Z,53.00
2019-05-13T10:56:32.751Z,54.10
2019-05-13T10:59:02.594Z,52.80
2019-05-13T11:01:27.877Z,53.60
2019-05-13T11:03:54.444Z,54.10
2019-05-13T11:06:21.937Z,53.10
2019-05-13T11:08:49.419Z,53.10
2019-05-13T11:11:16.178Z,52.70
2019-05-13T11:13:54.454Z,52.10
2019-05-13T11:16:12.238Z,52.30
2019-05-13T11:18:38.990Z,52.90
2019-05-13T11:21:05.558Z,52.50
2019-05-13T11:23:32.458Z,53.00
2019-05-13T11:25:58.971Z,52.90
2019-05-13T11:28:25.483Z,52.10
2019-05-13T11:30:52.591Z,52.00
2019-05-13T11:33:21.621Z,52.20
2019-05-13T11:35:47.634Z,53.40
2019-05-13T11:38:14.118Z,52.70
2019-05-13T11:40:40.620Z,53.00
2019-05-13T11:43:07.160Z,52.60
2019-05-13T11:45:33.675Z,53.30
2019-05-13T11:48:02.314Z,54.70
2019-05-13T11:50:28.447Z,55.00
2019-05-13T11:52:55.130Z,55.10
2019-05-13T11:55:23.023Z,55.10
2019-05-13T11:58:13.539Z,56.10
2019-05-13T12:00:53.580Z,56.70
2019-05-13T12:03:23.149Z,57.30
2019-05-13T12:05:53.438Z,57.70
2019-05-13T12:08:18.352Z,57.10
2019-05-13T12:10:45.368Z,57.40
2019-05-13T12:13:12.663Z,57.60
2019-05-13T12:15:54.329Z,57.60
2019-05-13T12:18:23.718Z,58.10
2019-05-13T12:20:53.598Z,58.20
2019-05-13T12:23:18.029Z,58.20
2019-05-13T12:25:44.715Z,57.90
2019-05-13T12:28:11.537Z,58.50
2019-05-13T12:30:38.199Z,58.70
2019-05-13T12:33:05.155Z,58.80
2019-05-13T12:35:32.804Z,59.00
2019-05-13T12:37:59.692Z,59.00
2019-05-13T12:40:26.280Z,59.60
2019-05-13T12:42:53.875Z,59.50
2019-05-13T12:45:22.444Z,59.50
2019-05-13T12:47:49.206Z,59.20
2019-05-13T12:50:18.804Z,58.90
2019-05-13T12:52:45.543Z,59.60
2019-05-13T12:55:13.980Z,59.10
2019-05-13T12:57:41.901Z,59.80
2019-05-13T13:00:08.536Z,60.20
2019-05-13T13:02:35.098Z,60.20
2019-05-13T13:05:13.190Z,60.80
2019-05-13T13:07:37.139Z,59.20
2019-05-13T13:09:59.759Z,58.30
2019-05-13T13:12:34.145Z,59.00
2019-05-13T13:14:54.870Z,59.40
2019-05-13T13:17:34.408Z,60.20
2019-05-13T13:20:08.819Z,61.70
2019-05-13T13:22:32.157Z,62.20
2019-05-13T13:24:58.288Z,62.80
2019-05-13T13:27:47.130Z,63.30
2019-05-13T13:30:02.732Z,63.70
2019-05-13T13:32:24.678Z,63.90
2019-05-13T13:34:53.644Z,63.90
2019-05-13T13:37:18.480Z,64.00
2019-05-13T13:39:45.075Z,63.90
2019-05-13T13:42:13.089Z,61.70
2019-05-13T13:44:42.897Z,62.10
2019-05-13T13:47:08.524Z,62.20
2019-05-13T13:49:35.388Z,62.60
2019-05-13T13:52:02.423Z,63.30
2019-05-13T13:54:29.053Z,63.60
2019-05-13T13:56:56.244Z,61.30
2019-05-13T13:59:24.532Z,62.20
2019-05-13T14:01:54.942Z,63.50
2019-05-13T14:04:20.035Z,62.60
2019-05-13T14:09:15.038Z,63.00
2019-05-13T14:11:41.997Z,63.70
2019-05-13T14:14:08.918Z,64.30
2019-05-13T14:16:36.504Z,64.70
2019-05-13T14:19:03.465Z,64.80
2019-05-13T14:21:32.262Z,65.50
2019-05-13T14:23:58.526Z,65.30
2019-05-13T14:26:25.187Z,66.00
2019-05-13T14:28:53.654Z,66.50
2019-05-13T14:31:21.423Z,68.00
2019-05-13T14:33:48.218Z,67.00
2019-05-13T14:36:14.832Z,64.50
2019-05-13T14:38:41.478Z,65.20
2019-05-13T14:41:09.330Z,66.30
2019-05-13T14:43:36.799Z,67.10
2019-05-13T14:46:03.450Z,67.20
2019-05-13T14:48:32.988Z,67.50
2019-05-13T14:50:59.170Z,67.10
2019-05-13T14:53:28.418Z,66.90
2019-05-13T14:55:54.911Z,66.00
2019-05-13T14:58:21.971Z,65.80
2019-05-13T15:01:08.203Z,65.00
2019-05-13T15:03:16.975Z,64.70
2019-05-13T15:05:43.572Z,64.90
2019-05-13T15:08:10.157Z,64.90
2019-05-13T15:10:36.927Z,64.60
2019-05-13T15:13:03.448Z,64.90
2019-05-13T15:15:31.684Z,66.10
2019-05-13T15:18:01.265Z,66.30
2019-05-13T15:20:27.301Z,65.20
2019-05-13T15:22:53.874Z,66.00
2019-05-13T15:25:22.104Z,65.70
2019-05-13T15:27:48.708Z,65.60
2019-05-13T15:30:18.063Z,64.70
2019-05-13T15:32:44.138Z,65.80
2019-05-13T15:35:13.253Z,65.90
2019-05-13T15:37:41.218Z,66.50
2019-05-13T15:40:07.733Z,66.60
2019-05-13T15:42:34.375Z,66.10
2019-05-13T15:45:02.033Z,66.70
2019-05-13T15:47:30.318Z,66.40
2019-05-13T15:49:57.215Z,66.40
2019-05-13T15:52:23.861Z,66.40
2019-05-13T15:54:52.244Z,66.10
2019-05-13T15:57:21.214Z,66.60
2019-05-13T15:59:47.100Z,66.70
2019-05-13T16:02:33.960Z,66.50
2019-05-13T16:05:06.379Z,66.80
2019-05-13T16:07:33.571Z,67.00
2019-05-13T16:10:02.014Z,67.50
2019-05-13T16:12:28.648Z,68.40
2019-05-13T16:14:55.178Z,69.30
2019-05-13T16:17:36.550Z,70.40
2019-05-13T16:19:53.348Z,71.60
2019-05-13T16:22:18.581Z,70.80
2019-05-13T16:24:45.066Z,70.80
2019-05-13T16:27:12.038Z,71.40
2019-05-13T16:29:38.722Z,70.80
2019-05-13T16:32:05.422Z,71.50
2019-05-13T16:34:52.134Z,71.50
2019-05-13T16:37:18.780Z,71.20
2019-05-13T16:39:45.160Z,70.00
2019-05-13T16:42:11.900Z,70.80
2019-05-13T16:44:38.849Z,70.90
2019-05-13T16:47:05.440Z,71.40
2019-05-13T16:49:32.117Z,70.10
2019-05-13T16:51:58.692Z,70.10
2019-05-13T16:54:25.260Z,70.80
2019-05-13T16:56:51.934Z,71.20
2019-05-13T16:59:20.997Z,71.70
2019-05-13T17:01:47.210Z,72.40
2019-05-13T17:04:13.822Z,73.10
2019-05-13T17:06:41.677Z,73.10
2019-05-13T17:09:08.228Z,73.50
2019-05-13T17:11:34.829Z,73.60
2019-05-13T17:14:03.064Z,73.20
2019-05-13T17:16:31.736Z,73.30
2019-05-13T17:19:01.408Z,73.50
2019-05-13T17:21:28.255Z,73.30
2019-05-13T17:23:54.805Z,73.40
2019-05-13T17:26:22.089Z,73.30
2019-05-13T17:28:48.971Z,73.50
2019-05-13T17:31:15.559Z,73.50
2019-05-13T17:33:42.238Z,74.10
2019-05-13T17:36:08.903Z,74.40
2019-05-13T17:38:35.607Z,75.30
2019-05-13T17:41:02.632Z,75.70
2019-05-13T17:43:31.300Z,76.70
2019-05-13T17:45:57.720Z,76.50
2019-05-13T17:48:28.830Z,76.60
2019-05-13T17:50:52.575Z,76.40
2019-05-13T17:53:18.922Z,76.60
2019-05-13T17:55:45.419Z,76.70
2019-05-13T17:58:12.084Z,76.90
2019-05-13T18:00:41.543Z,78.20
2019-05-13T18:03:08.284Z,79.30
2019-05-13T18:05:34.825Z,79.80
2019-05-13T18:08:01.950Z,80.40
2019-05-13T18:10:28.504Z,80.80
2019-05-13T18:12:55.086Z,81.40
2019-05-13T18:15:22.119Z,81.90
2019-05-13T18:17:49.027Z,82.80
2019-05-13T18:20:15.940Z,82.80
2019-05-13T18:22:42.628Z,83.00
2019-05-13T18:25:11.741Z,83.30
2019-05-13T18:27:37.788Z,83.40
2019-05-13T18:30:06.234Z,83.20
2019-05-13T18:32:32.869Z,83.10
2019-05-13T18:35:01.473Z,84.40
2019-05-13T18:37:27.726Z,84.60
2019-05-13T18:39:54.150Z,85.20
2019-05-13T18:42:22.292Z,83.60
2019-05-13T18:44:51.369Z,84.80
2019-05-13T18:47:17.918Z,84.80
2019-05-13T18:49:44.416Z,84.90
2019-05-13T18:52:24.604Z,84.20
2019-05-13T18:54:51.482Z,84.60
2019-05-13T18:57:21.190Z,84.00
2019-05-13T18:59:47.827Z,83.80
2019-05-13T19:02:14.938Z,84.30
2019-05-13T19:04:41.847Z,83.60
2019-05-13T19:07:08.509Z,84.50
2019-05-13T19:09:36.212Z,84.30
2019-05-13T19:12:02.782Z,83.70
2019-05-13T19:14:31.608Z,83.90
2019-05-13T19:16:57.765Z,84.20
2019-05-13T19:19:24.396Z,84.40
2019-05-13T19:21:51.198Z,84.40
2019-05-13T19:24:17.657Z,84.40
2019-05-13T19:26:44.194Z,84.50
2019-05-13T19:29:11.564Z,83.90
2019-05-13T19:31:38.315Z,83.50
2019-05-13T19:34:04.863Z,82.90
2019-05-13T19:36:31.461Z,83.10
2019-05-13T19:38:58.083Z,82.60
2019-05-13T19:41:24.758Z,82.70
2019-05-13T19:43:51.444Z,82.40
2019-05-13T19:46:17.993Z,82.80
2019-05-13T19:48:44.773Z,83.10
2019-05-13T19:51:11.415Z,83.10
2019-05-13T19:53:38.144Z,83.60
2019-05-13T19:56:06.110Z,83.70
2019-05-13T19:58:32.865Z,83.70
2019-05-13T20:00:59.597Z,83.70
2019-05-13T20:03:26.308Z,83.70
2019-05-13T20:05:52.670Z,83.60
2019-05-13T20:08:21.068Z,84.00
2019-05-13T20:10:47.583Z,84.40
2019-05-13T20:13:14.179Z,84.80
2019-05-13T20:15:41.274Z,85.10
2019-05-13T20:18:08.124Z,85.30
2019-05-13T20:20:34.649Z,85.60
2019-05-13T20:23:01.476Z,85.40
2019-05-13T20:25:28.078Z,85.50
2019-05-13T20:27:54.621Z,85.60
2019-05-13T20:30:21.908Z,85.70
2019-05-13T20:32:48.518Z,85.70
2019-05-13T20:35:15.255Z,85.50
2019-05-13T20:37:55.549Z,85.50
2019-05-13T20:40:22.227Z,85.50
2019-05-13T20:42:51.410Z,85.70
2019-05-13T20:45:17.721Z,86.00
2019-05-13T20:47:44.633Z,85.90
2019-05-13T20:50:12.343Z,86.50
2019-05-13T20:52:39.213Z,86.60
2019-05-13T20:55:06.384Z,86.60
2019-05-13T20:57:33.011Z,86.80
2019-05-13T21:00:01.828Z,86.80
2019-05-13T21:02:28.111Z,86.80
2019-05-13T21:04:54.499Z,86.50
2019-05-13T21:07:21.707Z,86.10
2019-05-13T21:09:48.430Z,86.20
2019-05-13T21:12:15.148Z,86.10
2019-05-13T21:14:41.852Z,86.00
2019-05-13T21:17:08.306Z,85.90
2019-05-13T21:19:39.654Z,85.90
2019-05-13T21:22:23.012Z,85.80
2019-05-13T21:24:51.387Z,85.70
2019-05-13T21:27:17.996Z,85.50
2019-05-13T21:29:44.384Z,85.40
2019-05-13T21:32:11.954Z,85.50
2019-05-13T21:34:39.476Z,85.50
2019-05-13T21:37:06.143Z,86.20
2019-05-13T21:39:32.880Z,84.50
2019-05-13T21:41:59.398Z,84.30
2019-05-13T21:44:25.950Z,84.30
2019-05-13T21:46:52.532Z,83.60
2019-05-13T21:49:21.158Z,83.20
2019-05-13T21:51:47.400Z,83.00
2019-05-13T21:54:13.932Z,83.40
2019-05-13T21:56:42.692Z,83.30
2019-05-13T21:59:09.080Z,82.40
2019-05-13T22:01:48.409Z,82.50
2019-05-13T22:04:14.944Z,82.10
2019-05-13T22:06:41.516Z,82.20
2019-05-13T22:09:11.730Z,82.10
2019-05-13T22:11:38.572Z,82.40
2019-05-13T22:14:05.208Z,82.50
2019-05-13T22:16:32.015Z,82.60
2019-05-13T22:18:58.604Z,82.60
2019-05-13T22:21:38.757Z,82.40
2019-05-13T22:24:05.434Z,81.20
2019-05-13T22:26:31.933Z,80.80
2019-05-13T22:28:58.539Z,80.80
2019-05-13T22:31:25.045Z,81.00
2019-05-13T22:33:51.838Z,81.20
2019-05-13T22:36:38.465Z,80.70
2019-05-13T22:39:05.152Z,81.00
2019-05-13T22:41:32.078Z,81.00
2019-05-13T22:43:59.063Z,80.50
2019-05-13T22:46:27.156Z,80.70
2019-05-13T22:48:53.907Z,81.10
2019-05-13T22:51:21.288Z,81.10
2019-05-13T22:53:49.303Z,80.50
2019-05-13T22:56:15.884Z,80.70
2019-05-13T22:58:42.341Z,81.00
2019-05-13T23:01:22.185Z,81.10
2019-05-13T23:03:48.767Z,81.00
2019-05-13T23:06:15.204Z,81.10
2019-05-13T23:08:41.787Z,81.50
2019-05-13T23:11:08.385Z,81.30
2019-05-13T23:13:34.998Z,81.70
2019-05-13T23:16:02.332Z,81.70
2019-05-13T23:18:31.612Z,81.80
2019-05-13T23:20:58.437Z,82.10
2019-05-13T23:23:24.751Z,82.90
2019-05-13T23:25:51.443Z,83.10
2019-05-13T23:28:18.554Z,83.30
2019-05-13T23:30:45.038Z,83.50
2019-05-13T23:33:11.807Z,83.30
2019-05-13T23:35:38.396Z,83.20
2019-05-13T23:38:04.821Z,82.70
2019-05-13T23:40:31.714Z,82.50
2019-05-13T23:42:58.484Z,82.80
2019-05-13T23:45:24.936Z,83.20
2019-05-13T23:47:51.526Z,83.70
2019-05-13T23:50:37.831Z,83.80
2019-05-13T23:53:04.522Z,83.60
2019-05-13T23:55:32.173Z,83.80
2019-05-13T23:58:18.678Z,84.10
